MSC2941 EDDF-HEGN
Flight info
| Callsign | MSC2941 |
|---|---|
| Flight time | N/A |
| Altitude | 31000 |
| Route | CINDY5L CINDY Z74 HAREM DCT ASLEP DCT TAKUT DCT DINKU L603 BESNI/N0442F350 L605 MIQ DCT ALUTU DCT BIBAG L605 ESEGA DCT VELOM DCT GOTAR DCT NOHAT DCT BABIT DCT KOTUS/N0437F370 DCT OBAGI DCT NISVA DCT VIT DCT RODIP UN131 KULAR UT39 TOMBI DCT DASNI M855 MAROS DCT USEBE DCT EVORA DCT RASDA A16 CVO L315 SOKOT SOKOT1A |
| Aircraft | A320/M-SDE3FGHIRWY/LB1 |
Departure
| Time | N/A |
|---|---|
| Airport | Frankfurt Main Airport (EDDF) |
Arrival
| Time | 2026-04-29 21:35 |
|---|---|
| Airport | Hurghada International Airport (HEGN) |
| Time | Latitude | Longitude | Altitude | Speed | Heading |
|---|---|---|---|---|---|
| 2026-04-29 19:21 | 40.92258 | 25.28645 | 35087 ft | 484 kts | 141° |
| 2026-04-29 19:21 | 40.89289 | 25.32100 | 35092 ft | 484 kts | 141° |
| 2026-04-29 19:22 | 40.84230 | 25.37962 | 35098 ft | 483 kts | 141° |
| 2026-04-29 19:22 | 40.79194 | 25.43852 | 35094 ft | 484 kts | 137° |
| 2026-04-29 19:23 | 40.74778 | 25.50504 | 35086 ft | 485 kts | 132° |
| 2026-04-29 19:23 | 40.70330 | 25.57202 | 35087 ft | 485 kts | 134° |
| 2026-04-29 19:24 | 40.65801 | 25.63799 | 35077 ft | 485 kts | 134° |
| 2026-04-29 19:24 | 40.61271 | 25.70364 | 35086 ft | 484 kts | 134° |
| 2026-04-29 19:25 | 40.56771 | 25.76959 | 35090 ft | 484 kts | 133° |
| 2026-04-29 19:25 | 40.52285 | 25.83554 | 35095 ft | 484 kts | 133° |
| 2026-04-29 19:26 | 40.47785 | 25.90136 | 35091 ft | 483 kts | 134° |
| 2026-04-29 19:26 | 40.43313 | 25.96656 | 35081 ft | 483 kts | 134° |
| 2026-04-29 19:27 | 40.38805 | 26.03202 | 35102 ft | 482 kts | 134° |
| 2026-04-29 19:27 | 40.34311 | 26.09725 | 35096 ft | 481 kts | 134° |
| 2026-04-29 19:28 | 40.29818 | 26.16222 | 35096 ft | 480 kts | 134° |
| 2026-04-29 19:28 | 40.25360 | 26.22665 | 35089 ft | 480 kts | 134° |
| 2026-04-29 19:29 | 40.20881 | 26.29133 | 35078 ft | 479 kts | 134° |
| 2026-04-29 19:29 | 40.16397 | 26.35585 | 35076 ft | 479 kts | 134° |
| 2026-04-29 19:30 | 40.11902 | 26.42029 | 35072 ft | 479 kts | 134° |
| 2026-04-29 19:30 | 40.07410 | 26.48456 | 35049 ft | 479 kts | 134° |
| 2026-04-29 19:31 | 40.02922 | 26.54871 | 35056 ft | 478 kts | 134° |
| 2026-04-29 19:31 | 39.98435 | 26.61273 | 35056 ft | 478 kts | 134° |
| 2026-04-29 19:32 | 39.93951 | 26.67655 | 35053 ft | 477 kts | 134° |
| 2026-04-29 19:32 | 39.89463 | 26.74029 | 35060 ft | 477 kts | 134° |
| 2026-04-29 19:33 | 39.84975 | 26.80392 | 35058 ft | 477 kts | 134° |
| 2026-04-29 19:33 | 39.80488 | 26.86749 | 35057 ft | 477 kts | 134° |
| 2026-04-29 19:34 | 39.75988 | 26.93102 | 35056 ft | 477 kts | 134° |
| 2026-04-29 19:34 | 39.71492 | 26.99425 | 35057 ft | 476 kts | 134° |
| 2026-04-29 19:35 | 39.67033 | 27.05705 | 35060 ft | 476 kts | 134° |
| 2026-04-29 19:35 | 39.62543 | 27.12014 | 35064 ft | 476 kts | 134° |
| 2026-04-29 19:36 | 39.58045 | 27.18304 | 35061 ft | 475 kts | 134° |
| 2026-04-29 19:36 | 39.53551 | 27.24583 | 35069 ft | 475 kts | 135° |
| 2026-04-29 19:37 | 39.49061 | 27.30853 | 35068 ft | 475 kts | 134° |
| 2026-04-29 19:37 | 39.44562 | 27.37106 | 35066 ft | 474 kts | 134° |
| 2026-04-29 19:38 | 39.40064 | 27.43346 | 35067 ft | 474 kts | 134° |
| 2026-04-29 19:38 | 39.35562 | 27.49584 | 35062 ft | 474 kts | 135° |
| 2026-04-29 19:39 | 39.31059 | 27.55811 | 35064 ft | 474 kts | 135° |
| 2026-04-29 19:39 | 39.26555 | 27.62024 | 35060 ft | 474 kts | 135° |
| 2026-04-29 19:40 | 39.22048 | 27.68239 | 35059 ft | 474 kts | 135° |
| 2026-04-29 19:40 | 39.17541 | 27.74433 | 35051 ft | 474 kts | 135° |
| 2026-04-29 19:41 | 39.13034 | 27.80621 | 35036 ft | 473 kts | 135° |
| 2026-04-29 19:41 | 39.08521 | 27.86794 | 35047 ft | 473 kts | 134° |
| 2026-04-29 19:42 | 39.04174 | 27.93146 | 35050 ft | 473 kts | 131° |
| 2026-04-29 19:42 | 39.00041 | 27.99669 | 35043 ft | 473 kts | 130° |
| 2026-04-29 19:43 | 38.95877 | 28.06213 | 35044 ft | 472 kts | 131° |
| 2026-04-29 19:43 | 38.91654 | 28.12686 | 35034 ft | 472 kts | 131° |
| 2026-04-29 19:44 | 38.88122 | 28.18041 | 35032 ft | 473 kts | 131° |
| 2026-04-29 19:44 | 38.83874 | 28.24480 | 35028 ft | 473 kts | 131° |
| 2026-04-29 19:45 | 38.79630 | 28.30921 | 35020 ft | 473 kts | 131° |
| 2026-04-29 19:45 | 38.75391 | 28.37358 | 35027 ft | 472 kts | 131° |
| 2026-04-29 19:46 | 38.71152 | 28.43788 | 35019 ft | 472 kts | 131° |
| 2026-04-29 19:46 | 38.66904 | 28.50205 | 35023 ft | 472 kts | 131° |
| 2026-04-29 19:47 | 38.62655 | 28.56611 | 35021 ft | 472 kts | 131° |
| 2026-04-29 19:47 | 38.58290 | 28.62883 | 35027 ft | 470 kts | 139° |
| 2026-04-29 19:48 | 38.53099 | 28.67901 | 35022 ft | 468 kts | 147° |
| 2026-04-29 19:48 | 38.47802 | 28.72634 | 35020 ft | 468 kts | 147° |
| 2026-04-29 19:49 | 38.42472 | 28.77392 | 35026 ft | 468 kts | 147° |
| 2026-04-29 19:49 | 38.37136 | 28.82153 | 35023 ft | 468 kts | 147° |
| 2026-04-29 19:50 | 38.31803 | 28.86906 | 35026 ft | 468 kts | 147° |
| 2026-04-29 19:50 | 38.26470 | 28.91651 | 35025 ft | 468 kts | 147° |
| 2026-04-29 19:51 | 38.21137 | 28.96389 | 35012 ft | 467 kts | 147° |
| 2026-04-29 19:51 | 38.15802 | 29.01117 | 35016 ft | 467 kts | 147° |
| 2026-04-29 19:52 | 38.10468 | 29.05834 | 35022 ft | 467 kts | 147° |
| 2026-04-29 19:52 | 38.05131 | 29.10539 | 35022 ft | 467 kts | 147° |
| 2026-04-29 19:53 | 37.99799 | 29.15243 | 35025 ft | 467 kts | 147° |
| 2026-04-29 19:53 | 37.94467 | 29.19925 | 35020 ft | 466 kts | 147° |
| 2026-04-29 19:54 | 37.86497 | 29.26914 | 35025 ft | 466 kts | 148° |
| 2026-04-29 19:54 | 37.81171 | 29.31577 | 35022 ft | 466 kts | 147° |
| 2026-04-29 19:55 | 37.75836 | 29.36251 | 35023 ft | 466 kts | 147° |
| 2026-04-29 19:55 | 37.70515 | 29.40911 | 35022 ft | 466 kts | 147° |
| 2026-04-29 19:56 | 37.65180 | 29.45559 | 35016 ft | 465 kts | 147° |
| 2026-04-29 19:56 | 37.59849 | 29.50188 | 35017 ft | 465 kts | 148° |
| 2026-04-29 19:57 | 37.55419 | 29.54034 | 35013 ft | 465 kts | 148° |
| 2026-04-29 19:57 | 37.49197 | 29.59442 | 35010 ft | 465 kts | 148° |
| 2026-04-29 19:58 | 37.43899 | 29.64026 | 35009 ft | 465 kts | 148° |
| 2026-04-29 19:58 | 37.38568 | 29.68631 | 34998 ft | 464 kts | 148° |
| 2026-04-29 19:59 | 37.33241 | 29.73221 | 34999 ft | 464 kts | 148° |
| 2026-04-29 19:59 | 37.27915 | 29.77818 | 35002 ft | 464 kts | 147° |
| 2026-04-29 20:00 | 37.22591 | 29.82404 | 35002 ft | 464 kts | 148° |
| 2026-04-29 20:00 | 37.17262 | 29.86985 | 35005 ft | 464 kts | 148° |
| 2026-04-29 20:01 | 37.11933 | 29.91552 | 34996 ft | 464 kts | 148° |
| 2026-04-29 20:01 | 37.06599 | 29.96122 | 35002 ft | 464 kts | 148° |
| 2026-04-29 20:02 | 37.01301 | 30.00664 | 35004 ft | 464 kts | 148° |
| 2026-04-29 20:02 | 36.96837 | 30.04484 | 35005 ft | 464 kts | 148° |
| 2026-04-29 20:03 | 36.90630 | 30.09777 | 35014 ft | 464 kts | 148° |
| 2026-04-29 20:03 | 36.85286 | 30.14321 | 35018 ft | 464 kts | 148° |
| 2026-04-29 20:04 | 36.79950 | 30.18851 | 35016 ft | 463 kts | 148° |
| 2026-04-29 20:04 | 36.74621 | 30.23368 | 35020 ft | 463 kts | 148° |
| 2026-04-29 20:05 | 36.69290 | 30.27882 | 35022 ft | 462 kts | 148° |
| 2026-04-29 20:05 | 36.63968 | 30.32377 | 35012 ft | 462 kts | 148° |
| 2026-04-29 20:06 | 36.58638 | 30.36871 | 35017 ft | 463 kts | 148° |
| 2026-04-29 20:06 | 36.53340 | 30.41333 | 35002 ft | 462 kts | 148° |
| 2026-04-29 20:07 | 36.48012 | 30.45803 | 34994 ft | 462 kts | 148° |
| 2026-04-29 20:07 | 36.42675 | 30.50276 | 34996 ft | 463 kts | 148° |
| 2026-04-29 20:08 | 36.38202 | 30.54019 | 34988 ft | 463 kts | 148° |
| 2026-04-29 20:08 | 36.31997 | 30.59205 | 34992 ft | 463 kts | 148° |
| 2026-04-29 20:09 | 36.26652 | 30.63669 | 34979 ft | 463 kts | 148° |
| 2026-04-29 20:09 | 36.21296 | 30.68116 | 34983 ft | 463 kts | 148° |
| 2026-04-29 20:10 | 36.15941 | 30.72563 | 34987 ft | 463 kts | 148° |
| 2026-04-29 20:10 | 36.10632 | 30.76977 | 34992 ft | 463 kts | 148° |
| 2026-04-29 20:11 | 36.05094 | 30.80961 | 34987 ft | 458 kts | 161° |
| 2026-04-29 20:11 | 35.98966 | 30.82745 | 34977 ft | 450 kts | 179° |
| 2026-04-29 20:12 | 35.92722 | 30.83109 | 34979 ft | 449 kts | 180° |
| 2026-04-29 20:12 | 35.86474 | 30.83490 | 34980 ft | 449 kts | 180° |
| 2026-04-29 20:13 | 35.81283 | 30.83812 | 34980 ft | 449 kts | 180° |
| 2026-04-29 20:13 | 35.74018 | 30.84254 | 34975 ft | 449 kts | 180° |
| 2026-04-29 20:14 | 35.67767 | 30.84632 | 34978 ft | 449 kts | 180° |
| 2026-04-29 20:14 | 35.61523 | 30.85003 | 34978 ft | 449 kts | 180° |
| 2026-04-29 20:15 | 35.55269 | 30.85280 | 34967 ft | 449 kts | 182° |
| 2026-04-29 20:15 | 35.49017 | 30.85442 | 34974 ft | 449 kts | 182° |
| 2026-04-29 20:16 | 35.42756 | 30.85613 | 34980 ft | 450 kts | 182° |
| 2026-04-29 20:16 | 35.36493 | 30.85824 | 34984 ft | 450 kts | 182° |
| 2026-04-29 20:17 | 35.30229 | 30.86041 | 34978 ft | 451 kts | 182° |
| 2026-04-29 20:17 | 35.23955 | 30.86257 | 34986 ft | 451 kts | 182° |
| 2026-04-29 20:18 | 35.17682 | 30.86471 | 34987 ft | 451 kts | 182° |
| 2026-04-29 20:18 | 35.11412 | 30.86687 | 34975 ft | 451 kts | 182° |
| 2026-04-29 20:19 | 35.05176 | 30.86896 | 34978 ft | 451 kts | 182° |
| 2026-04-29 20:19 | 34.98897 | 30.87100 | 34984 ft | 452 kts | 182° |
| 2026-04-29 20:20 | 34.92612 | 30.87301 | 34990 ft | 452 kts | 182° |
| 2026-04-29 20:20 | 34.86321 | 30.87511 | 34988 ft | 452 kts | 182° |
| 2026-04-29 20:21 | 34.80027 | 30.87718 | 34983 ft | 453 kts | 182° |
| 2026-04-29 20:21 | 34.73771 | 30.87921 | 34990 ft | 453 kts | 182° |
| 2026-04-29 20:22 | 34.67475 | 30.88131 | 34978 ft | 453 kts | 182° |
| 2026-04-29 20:22 | 34.61172 | 30.88340 | 34982 ft | 453 kts | 182° |
| 2026-04-29 20:23 | 34.54855 | 30.88629 | 34992 ft | 454 kts | 181° |
| 2026-04-29 20:23 | 34.48544 | 30.88995 | 34996 ft | 454 kts | 181° |
| 2026-04-29 20:24 | 34.42219 | 30.89345 | 34982 ft | 455 kts | 182° |
| 2026-04-29 20:24 | 34.35886 | 30.89682 | 34988 ft | 455 kts | 182° |
| 2026-04-29 20:25 | 34.29592 | 30.90001 | 34995 ft | 455 kts | 182° |
| 2026-04-29 20:25 | 34.23261 | 30.90317 | 34998 ft | 455 kts | 182° |
| 2026-04-29 20:26 | 34.16927 | 30.90648 | 35002 ft | 455 kts | 182° |
| 2026-04-29 20:26 | 34.10590 | 30.90979 | 35011 ft | 456 kts | 182° |
| 2026-04-29 20:27 | 34.06349 | 30.91204 | 35006 ft | 456 kts | 182° |
| 2026-04-29 20:27 | 33.97912 | 30.91640 | 35000 ft | 456 kts | 182° |
| 2026-04-29 20:28 | 33.91570 | 30.91968 | 35001 ft | 457 kts | 182° |
| 2026-04-29 20:28 | 33.85221 | 30.92333 | 35010 ft | 457 kts | 182° |
| 2026-04-29 20:29 | 33.78865 | 30.92725 | 35013 ft | 457 kts | 182° |
| 2026-04-29 20:29 | 33.72503 | 30.93104 | 34998 ft | 458 kts | 182° |
| 2026-04-29 20:30 | 33.66129 | 30.93478 | 34994 ft | 459 kts | 182° |
| 2026-04-29 20:30 | 33.59792 | 30.93849 | 35003 ft | 459 kts | 182° |
| 2026-04-29 20:31 | 33.53406 | 30.94222 | 34984 ft | 459 kts | 183° |
| 2026-04-29 20:31 | 33.47011 | 30.94592 | 34989 ft | 460 kts | 183° |
| 2026-04-29 20:32 | 33.41685 | 30.94888 | 34991 ft | 461 kts | 183° |
| 2026-04-29 20:32 | 33.35269 | 30.95120 | 34998 ft | 460 kts | 186° |
| 2026-04-29 20:33 | 33.28876 | 30.95066 | 34985 ft | 459 kts | 187° |
| 2026-04-29 20:33 | 33.22462 | 30.94980 | 34995 ft | 461 kts | 187° |
| 2026-04-29 20:34 | 33.16083 | 30.94965 | 35005 ft | 462 kts | 186° |
| 2026-04-29 20:34 | 33.09634 | 30.95055 | 35009 ft | 464 kts | 184° |
| 2026-04-29 20:35 | 33.03161 | 30.95571 | 34999 ft | 468 kts | 181° |
| 2026-04-29 20:35 | 32.96686 | 30.96397 | 35001 ft | 470 kts | 180° |
| 2026-04-29 20:36 | 32.90152 | 30.97233 | 35289 ft | 474 kts | 181° |
| 2026-04-29 20:36 | 32.86871 | 30.97617 | 35552 ft | 473 kts | 181° |
| 2026-04-29 20:36 | 32.83592 | 30.97985 | 35769 ft | 473 kts | 182° |
| 2026-04-29 20:37 | 32.80306 | 30.98344 | 35988 ft | 474 kts | 182° |
| 2026-04-29 20:37 | 32.77021 | 30.98700 | 36245 ft | 473 kts | 182° |
| 2026-04-29 20:37 | 32.73746 | 30.99058 | 36515 ft | 473 kts | 182° |
| 2026-04-29 20:37 | 32.70469 | 30.99419 | 36781 ft | 472 kts | 182° |
| 2026-04-29 20:38 | 32.67240 | 30.99778 | 36992 ft | 472 kts | 182° |
| 2026-04-29 20:38 | 32.63935 | 31.00148 | 37028 ft | 471 kts | 181° |
| 2026-04-29 20:38 | 32.57451 | 31.00877 | 37029 ft | 471 kts | 182° |
| 2026-04-29 20:39 | 32.50933 | 31.01602 | 37029 ft | 471 kts | 182° |
| 2026-04-29 20:39 | 32.44402 | 31.02323 | 37031 ft | 470 kts | 182° |
| 2026-04-29 20:40 | 32.37877 | 31.03044 | 37027 ft | 470 kts | 182° |
| 2026-04-29 20:40 | 32.31394 | 31.03757 | 37021 ft | 471 kts | 182° |
| 2026-04-29 20:41 | 32.24861 | 31.04479 | 37023 ft | 471 kts | 182° |
| 2026-04-29 20:41 | 32.18340 | 31.05193 | 37033 ft | 471 kts | 182° |
| 2026-04-29 20:42 | 32.11810 | 31.05913 | 37015 ft | 471 kts | 182° |
| 2026-04-29 20:42 | 32.05292 | 31.06632 | 37030 ft | 471 kts | 182° |
| 2026-04-29 20:43 | 31.98760 | 31.07339 | 37034 ft | 471 kts | 183° |
| 2026-04-29 20:43 | 31.92227 | 31.08041 | 37041 ft | 471 kts | 183° |
| 2026-04-29 20:44 | 31.85738 | 31.08742 | 37043 ft | 471 kts | 183° |
| 2026-04-29 20:44 | 31.79208 | 31.09443 | 37045 ft | 471 kts | 183° |
| 2026-04-29 20:45 | 31.72676 | 31.10131 | 37050 ft | 471 kts | 183° |
| 2026-04-29 20:45 | 31.66137 | 31.10826 | 37052 ft | 472 kts | 183° |
| 2026-04-29 20:46 | 31.59599 | 31.11532 | 37026 ft | 472 kts | 183° |
| 2026-04-29 20:46 | 31.53060 | 31.12236 | 37037 ft | 472 kts | 182° |
| 2026-04-29 20:47 | 31.46508 | 31.13239 | 37045 ft | 477 kts | 179° |
| 2026-04-29 20:47 | 31.39999 | 31.14575 | 37023 ft | 478 kts | 178° |
| 2026-04-29 20:48 | 31.33452 | 31.15929 | 37032 ft | 477 kts | 179° |
| 2026-04-29 20:48 | 31.26910 | 31.17170 | 37039 ft | 476 kts | 179° |
| 2026-04-29 20:49 | 31.20372 | 31.18360 | 37040 ft | 476 kts | 179° |
| 2026-04-29 20:49 | 31.13830 | 31.19562 | 37007 ft | 476 kts | 179° |
| 2026-04-29 20:50 | 31.07282 | 31.20787 | 37027 ft | 476 kts | 179° |
| 2026-04-29 20:50 | 31.00775 | 31.21997 | 37031 ft | 476 kts | 179° |
| 2026-04-29 20:51 | 30.94239 | 31.23204 | 37033 ft | 475 kts | 179° |
| 2026-04-29 20:51 | 30.87709 | 31.24415 | 37003 ft | 475 kts | 179° |
| 2026-04-29 20:52 | 30.81176 | 31.25631 | 37016 ft | 475 kts | 179° |
| 2026-04-29 20:52 | 30.74639 | 31.26840 | 37020 ft | 475 kts | 179° |
| 2026-04-29 20:53 | 30.68102 | 31.28042 | 37024 ft | 475 kts | 179° |
| 2026-04-29 20:53 | 30.61566 | 31.29246 | 37005 ft | 475 kts | 179° |
| 2026-04-29 20:54 | 30.51767 | 31.31051 | 37011 ft | 475 kts | 180° |
| 2026-04-29 20:55 | 30.45237 | 31.32248 | 37017 ft | 475 kts | 180° |
| 2026-04-29 20:55 | 30.38746 | 31.33444 | 36967 ft | 475 kts | 179° |
| 2026-04-29 20:56 | 30.32211 | 31.34652 | 36978 ft | 475 kts | 179° |
| 2026-04-29 20:56 | 30.25685 | 31.35845 | 36991 ft | 475 kts | 180° |
| 2026-04-29 20:57 | 30.19159 | 31.37034 | 36988 ft | 475 kts | 180° |
| 2026-04-29 20:57 | 30.12629 | 31.38296 | 36971 ft | 480 kts | 174° |
| 2026-04-29 20:57 | 30.09421 | 31.39506 | 36976 ft | 491 kts | 163° |
| 2026-04-29 20:58 | 30.06370 | 31.41342 | 36977 ft | 500 kts | 153° |
| 2026-04-29 20:58 | 30.00752 | 31.46113 | 36983 ft | 504 kts | 149° |
| 2026-04-29 20:59 | 29.95110 | 31.50945 | 36992 ft | 504 kts | 149° |
| 2026-04-29 20:59 | 29.89454 | 31.55740 | 37003 ft | 505 kts | 149° |
| 2026-04-29 21:00 | 29.83800 | 31.60540 | 37021 ft | 505 kts | 149° |
| 2026-04-29 21:00 | 29.78188 | 31.65319 | 37019 ft | 504 kts | 149° |
| 2026-04-29 21:01 | 29.72559 | 31.70097 | 37038 ft | 504 kts | 149° |
| 2026-04-29 21:01 | 29.66919 | 31.74878 | 37053 ft | 504 kts | 149° |
| 2026-04-29 21:02 | 29.61271 | 31.79658 | 37055 ft | 504 kts | 149° |
| 2026-04-29 21:02 | 29.55622 | 31.84432 | 37058 ft | 503 kts | 149° |
| 2026-04-29 21:03 | 29.49984 | 31.89196 | 37026 ft | 503 kts | 149° |
| 2026-04-29 21:03 | 29.44393 | 31.93916 | 37048 ft | 502 kts | 149° |
| 2026-04-29 21:04 | 29.38760 | 31.98653 | 37051 ft | 502 kts | 149° |
| 2026-04-29 21:04 | 29.33131 | 32.03377 | 37053 ft | 501 kts | 149° |
| 2026-04-29 21:05 | 29.27502 | 32.08102 | 37055 ft | 501 kts | 149° |
| 2026-04-29 21:05 | 29.21873 | 32.12816 | 37053 ft | 501 kts | 150° |
| 2026-04-29 21:06 | 29.16251 | 32.17521 | 37049 ft | 500 kts | 149° |
| 2026-04-29 21:06 | 29.10634 | 32.22224 | 37037 ft | 500 kts | 150° |
| 2026-04-29 21:07 | 29.05015 | 32.26912 | 37036 ft | 500 kts | 150° |
| 2026-04-29 21:07 | 28.99391 | 32.31606 | 37029 ft | 500 kts | 150° |
| 2026-04-29 21:08 | 28.93791 | 32.36262 | 36938 ft | 501 kts | 150° |
| 2026-04-29 21:08 | 28.90969 | 32.38600 | 36679 ft | 501 kts | 150° |
| 2026-04-29 21:08 | 28.88151 | 32.40933 | 36412 ft | 500 kts | 150° |
| 2026-04-29 21:08 | 28.85340 | 32.43264 | 36145 ft | 500 kts | 150° |
| 2026-04-29 21:09 | 28.82556 | 32.45572 | 35909 ft | 501 kts | 150° |
| 2026-04-29 21:09 | 28.79735 | 32.47908 | 35658 ft | 501 kts | 150° |
| 2026-04-29 21:09 | 28.76917 | 32.50242 | 35413 ft | 501 kts | 150° |
| 2026-04-29 21:09 | 28.74095 | 32.52580 | 35165 ft | 501 kts | 149° |
| 2026-04-29 21:10 | 28.71274 | 32.54914 | 34927 ft | 502 kts | 149° |
| 2026-04-29 21:10 | 28.68449 | 32.57251 | 34695 ft | 502 kts | 149° |
| 2026-04-29 21:10 | 28.65622 | 32.59592 | 34462 ft | 502 kts | 149° |
| 2026-04-29 21:10 | 28.62795 | 32.61930 | 34214 ft | 503 kts | 149° |
| 2026-04-29 21:11 | 28.59963 | 32.64273 | 33978 ft | 503 kts | 149° |
| 2026-04-29 21:11 | 28.57134 | 32.66609 | 33712 ft | 502 kts | 149° |
| 2026-04-29 21:11 | 28.54312 | 32.68935 | 33419 ft | 499 kts | 149° |
| 2026-04-29 21:11 | 28.51506 | 32.71247 | 33153 ft | 497 kts | 149° |
| 2026-04-29 21:12 | 28.48714 | 32.73546 | 32873 ft | 495 kts | 149° |
| 2026-04-29 21:12 | 28.45929 | 32.75838 | 32624 ft | 493 kts | 149° |
| 2026-04-29 21:12 | 28.43150 | 32.78115 | 32360 ft | 492 kts | 150° |
| 2026-04-29 21:12 | 28.40373 | 32.80385 | 32106 ft | 491 kts | 150° |
| 2026-04-29 21:13 | 28.37604 | 32.82649 | 31855 ft | 490 kts | 149° |
| 2026-04-29 21:13 | 28.34842 | 32.84912 | 31603 ft | 488 kts | 149° |
| 2026-04-29 21:13 | 28.32092 | 32.87172 | 31355 ft | 487 kts | 149° |
| 2026-04-29 21:13 | 28.29389 | 32.89396 | 31104 ft | 486 kts | 149° |
| 2026-04-29 21:14 | 28.26650 | 32.91647 | 30865 ft | 485 kts | 149° |
| 2026-04-29 21:14 | 28.23917 | 32.93883 | 30603 ft | 484 kts | 149° |
| 2026-04-29 21:14 | 28.21197 | 32.96107 | 30354 ft | 481 kts | 149° |
| 2026-04-29 21:14 | 28.18489 | 32.98324 | 30117 ft | 479 kts | 149° |
| 2026-04-29 21:15 | 28.15792 | 33.00533 | 29848 ft | 477 kts | 149° |
| 2026-04-29 21:15 | 28.13110 | 33.02725 | 29230 ft | 474 kts | 149° |
| 2026-04-29 21:15 | 28.10441 | 33.04902 | 28635 ft | 471 kts | 149° |
| 2026-04-29 21:15 | 28.07786 | 33.07063 | 28010 ft | 469 kts | 149° |
| 2026-04-29 21:16 | 28.05142 | 33.09211 | 27428 ft | 466 kts | 149° |
| 2026-04-29 21:16 | 28.02516 | 33.11342 | 26890 ft | 462 kts | 149° |
| 2026-04-29 21:16 | 27.99923 | 33.13449 | 26412 ft | 457 kts | 148° |
| 2026-04-29 21:16 | 27.97357 | 33.15539 | 25933 ft | 452 kts | 148° |
| 2026-04-29 21:17 | 27.94817 | 33.17608 | 25457 ft | 448 kts | 148° |
| 2026-04-29 21:17 | 27.92301 | 33.19655 | 24995 ft | 443 kts | 148° |
| 2026-04-29 21:17 | 27.89809 | 33.21680 | 24537 ft | 438 kts | 148° |
| 2026-04-29 21:17 | 27.87347 | 33.23681 | 24078 ft | 435 kts | 148° |
| 2026-04-29 21:18 | 27.84898 | 33.25670 | 23615 ft | 432 kts | 148° |
| 2026-04-29 21:18 | 27.82497 | 33.27616 | 23095 ft | 429 kts | 148° |
| 2026-04-29 21:18 | 27.80084 | 33.29570 | 22623 ft | 425 kts | 147° |
| 2026-04-29 21:18 | 27.77691 | 33.31506 | 22155 ft | 421 kts | 148° |
| 2026-04-29 21:19 | 27.75324 | 33.33420 | 21680 ft | 417 kts | 148° |
| 2026-04-29 21:19 | 27.72972 | 33.35320 | 21208 ft | 414 kts | 148° |
| 2026-04-29 21:19 | 27.70635 | 33.37207 | 20733 ft | 412 kts | 147° |
| 2026-04-29 21:19 | 27.68309 | 33.39083 | 20244 ft | 410 kts | 147° |
| 2026-04-29 21:20 | 27.65993 | 33.40950 | 19779 ft | 408 kts | 147° |
| 2026-04-29 21:20 | 27.63690 | 33.42807 | 19302 ft | 407 kts | 147° |
| 2026-04-29 21:20 | 27.61390 | 33.44659 | 18828 ft | 405 kts | 147° |
| 2026-04-29 21:20 | 27.59102 | 33.46501 | 18353 ft | 404 kts | 146° |
| 2026-04-29 21:21 | 27.56817 | 33.48340 | 17845 ft | 403 kts | 146° |
| 2026-04-29 21:21 | 27.54537 | 33.50176 | 17373 ft | 400 kts | 146° |
| 2026-04-29 21:21 | 27.52270 | 33.51967 | 16913 ft | 397 kts | 150° |
| 2026-04-29 21:21 | 27.49836 | 33.53369 | 16462 ft | 391 kts | 159° |
| 2026-04-29 21:22 | 27.47349 | 33.54578 | 16014 ft | 388 kts | 159° |
| 2026-04-29 21:22 | 27.45711 | 33.55372 | 15718 ft | 386 kts | 159° |
| 2026-04-29 21:22 | 27.43251 | 33.56564 | 15276 ft | 383 kts | 159° |
| 2026-04-29 21:22 | 27.40018 | 33.58132 | 14686 ft | 380 kts | 159° |
| 2026-04-29 21:23 | 27.37596 | 33.59306 | 14244 ft | 377 kts | 159° |
| 2026-04-29 21:23 | 27.35185 | 33.60408 | 13817 ft | 372 kts | 165° |
| 2026-04-29 21:23 | 27.32699 | 33.61173 | 13338 ft | 369 kts | 167° |
| 2026-04-29 21:23 | 27.31060 | 33.61658 | 13042 ft | 366 kts | 167° |
| 2026-04-29 21:24 | 27.28610 | 33.62380 | 12601 ft | 362 kts | 167° |
| 2026-04-29 21:24 | 27.26184 | 33.63096 | 12172 ft | 358 kts | 167° |
| 2026-04-29 21:24 | 27.23781 | 33.63806 | 11736 ft | 356 kts | 167° |
| 2026-04-29 21:24 | 27.21396 | 33.64514 | 11295 ft | 353 kts | 166° |
| 2026-04-29 21:25 | 27.19029 | 33.65218 | 10856 ft | 351 kts | 167° |
| 2026-04-29 21:25 | 27.16664 | 33.65919 | 10397 ft | 349 kts | 166° |
| 2026-04-29 21:25 | 27.14332 | 33.66611 | 10134 ft | 342 kts | 166° |
| 2026-04-29 21:25 | 27.12070 | 33.67284 | 10000 ft | 330 kts | 166° |
| 2026-04-29 21:26 | 27.09893 | 33.67930 | 9799 ft | 315 kts | 166° |
| 2026-04-29 21:26 | 27.07802 | 33.68552 | 9352 ft | 305 kts | 166° |
| 2026-04-29 21:26 | 27.05779 | 33.69153 | 8951 ft | 299 kts | 167° |
| 2026-04-29 21:26 | 27.03803 | 33.69736 | 8575 ft | 295 kts | 166° |
| 2026-04-29 21:27 | 27.01818 | 33.70318 | 8206 ft | 294 kts | 167° |
| 2026-04-29 21:27 | 26.99847 | 33.70897 | 7838 ft | 292 kts | 167° |
| 2026-04-29 21:27 | 26.97912 | 33.71468 | 7464 ft | 282 kts | 167° |
| 2026-04-29 21:27 | 26.96041 | 33.72022 | 7014 ft | 275 kts | 167° |
| 2026-04-29 21:28 | 26.94205 | 33.72565 | 6534 ft | 270 kts | 168° |
| 2026-04-29 21:28 | 26.92435 | 33.73208 | 6053 ft | 266 kts | 152° |
| 2026-04-29 21:28 | 26.91086 | 33.74576 | 5631 ft | 263 kts | 120° |
| 2026-04-29 21:28 | 26.90462 | 33.76465 | 5256 ft | 258 kts | 98° |
| 2026-04-29 21:29 | 26.90482 | 33.78420 | 4892 ft | 248 kts | 67° |
| 2026-04-29 21:29 | 26.91209 | 33.80131 | 4525 ft | 241 kts | 50° |
| 2026-04-29 21:29 | 26.92229 | 33.81592 | 4205 ft | 234 kts | 45° |
| 2026-04-29 21:29 | 26.93272 | 33.82975 | 3964 ft | 230 kts | 45° |
| 2026-04-29 21:30 | 26.94385 | 33.84193 | 3765 ft | 218 kts | 30° |
| 2026-04-29 21:30 | 26.95658 | 33.85061 | 3570 ft | 212 kts | 26° |
| 2026-04-29 21:30 | 26.96977 | 33.85715 | 3378 ft | 204 kts | 10° |
| 2026-04-29 21:30 | 26.98360 | 33.85810 | 3185 ft | 197 kts | 351° |
| 2026-04-29 21:31 | 26.99667 | 33.85463 | 3041 ft | 189 kts | 343° |
| 2026-04-29 21:31 | 27.00894 | 33.85102 | 2955 ft | 176 kts | 342° |
| 2026-04-29 21:31 | 27.02046 | 33.84763 | 2761 ft | 167 kts | 342° |
| 2026-04-29 21:31 | 27.03153 | 33.84437 | 2559 ft | 163 kts | 342° |
| 2026-04-29 21:32 | 27.04242 | 33.84115 | 2352 ft | 161 kts | 344° |
| 2026-04-29 21:32 | 27.05329 | 33.83794 | 2146 ft | 161 kts | 344° |
| 2026-04-29 21:32 | 27.06398 | 33.83479 | 1940 ft | 155 kts | 344° |
| 2026-04-29 21:32 | 27.07399 | 33.83184 | 1752 ft | 143 kts | 345° |
| 2026-04-29 21:33 | 27.08338 | 33.82907 | 1581 ft | 138 kts | 344° |
| 2026-04-29 21:33 | 27.09274 | 33.82630 | 1383 ft | 137 kts | 344° |
| 2026-04-29 21:33 | 27.10187 | 33.82359 | 1169 ft | 137 kts | 346° |
| 2026-04-29 21:33 | 27.11099 | 33.82086 | 1053 ft | 136 kts | 347° |
| 2026-04-29 21:34 | 27.12038 | 33.81814 | 880 ft | 138 kts | 347° |
| 2026-04-29 21:34 | 27.12966 | 33.81542 | 687 ft | 138 kts | 346° |
| 2026-04-29 21:34 | 27.13898 | 33.81272 | 526 ft | 137 kts | 345° |
| 2026-04-29 21:34 | 27.14806 | 33.81002 | 364 ft | 133 kts | 344° |
| 2026-04-29 21:35 | 27.15712 | 33.80732 | 194 ft | 136 kts | 345° |
| 2026-04-29 21:35 | 27.16613 | 33.80463 | 60 ft | 125 kts | 345° |
| 2026-04-29 21:35 | 27.17350 | 33.80247 | 52 ft | 93 kts | 345° |
| 2026-04-29 21:35 | 27.17803 | 33.80115 | 54 ft | 42 kts | 345° |
| 2026-04-29 21:36 | 27.18026 | 33.80048 | 49 ft | 30 kts | 345° |
| 2026-04-29 21:36 | 27.18213 | 33.79992 | 51 ft | 25 kts | 345° |
| 2026-04-29 21:36 | 27.18372 | 33.79945 | 50 ft | 23 kts | 345° |
| 2026-04-29 21:36 | 27.18450 | 33.79959 | 49 ft | 11 kts | 60° |
| 2026-04-29 21:37 | 27.18472 | 33.80052 | 49 ft | 13 kts | 84° |
| 2026-04-29 21:37 | 27.18420 | 33.80106 | 50 ft | 10 kts | 166° |
| 2026-04-29 21:37 | 27.18355 | 33.80124 | 52 ft | 13 kts | 166° |
| 2026-04-29 21:37 | 27.18219 | 33.80163 | 50 ft | 21 kts | 166° |
| 2026-04-29 21:38 | 27.18081 | 33.80202 | 53 ft | 20 kts | 166° |
| 2026-04-29 21:38 | 27.17955 | 33.80240 | 54 ft | 18 kts | 165° |
| 2026-04-29 21:38 | 27.17847 | 33.80274 | 54 ft | 12 kts | 161° |
| 2026-04-29 21:38 | 27.17815 | 33.80339 | 56 ft | 8 kts | 87° |
| 2026-04-29 21:39 | 27.17827 | 33.80391 | 56 ft | 9 kts | 75° |
| 2026-04-29 21:39 | 27.17845 | 33.80462 | 58 ft | 9 kts | 74° |
| 2026-04-29 21:39 | 27.17828 | 33.80527 | 51 ft | 9 kts | 139° |
| 2026-04-29 21:39 | 27.17773 | 33.80548 | 51 ft | 7 kts | 154° |
| 2026-04-29 21:40 | 27.17758 | 33.80594 | 56 ft | 6 kts | 79° |
| 2026-04-29 21:40 | 27.17769 | 33.80637 | 55 ft | 5 kts | 75° |
| 2026-04-29 21:40 | 27.17774 | 33.80661 | 57 ft | 0 kts | 75° |